Terminal Aerodrome Forecast
Issued by NWS Charleston, WV

Home | Current Version | Previous Version | Text Only | Print | Product List | Glossary On
Versions: 1 2 3 4 5 6 7 8 9 10 11 12 13 14 15 16 17 18 19 20 21 22 23 24 25
000
FTUS41 KRLX 172337
TAFPKB
TAF
KPKB 172337Z 1800/1824 VRB03KT P6SM BKN200
     FM180700 18006KT P6SM BKN070
     FM181100 19008KT 5SM -SHRA OVC030
     FM181400 19009G15KT P6SM VCSH OVC035
     FM182200 19012G20KT 5SM -SHRA OVC025=

USA.gov is the U.S. government's official web portal to all federal, state and local government web resources and services.